Wonewoc, WI (53968)

11:30 AM CST on December 25, 2014 (GMT -0600)
Hillsboro | Change Station
CLOSE
Current Station
Personal Weather Station
Location: Hillsboro, WI
Elevation: 958 ft
Nearby Weather Stations

Elev 958 ft 43.65 °N, 90.34 °W | Updated 0 second ago

Overcast
Overcast
32.9 °F
Feels Like 25 °F
N
9.2
Wind Variable Wind from South
Gusts 9.8 mph

Today
High -- | Low -- °F
--% Chance of Precip.
Yesterday
High -- | Low -- °F
Precip. -- in
7:32 AM 4:29 PM
Waxing Crescent, 18% visible
Pressure 29.84 in
Visibility 10.0 miles
Clouds Overcast 1400 ft
Windchill 25 °F
Dew Point 27 °F
Humidity 78%
Rainfall 0.00 in
Snow Depth Not available.
UV 1 out of 12
Pollen .10 out of 12
Air Quality Not available.
Flu Activity Not available.
METAR KC35 251715Z AUTO 19008KT 10SM OVC014 00/M02 A2984 RMK AO2 T00011019

More Conditions Fewer Conditions

Pressure 29.84 in
Visibility 10.0 miles
Clouds Overcast 1400 ft
Windchill 25 °F
Dew Point 27 °F
Humidity 78%
Rainfall 0.00 in
Snow Depth Not available.
UV 1 out of 12
Pollen .10 out of 12
Air Quality Not available.
Flu Activity Not available.
METAR KC35 251715Z AUTO 19008KT 10SM OVC014 00/M02 A2984 RMK AO2 T00011019

More Conditions Fewer Conditions

10-Day Weather Forecast

Almanac

Astronomy

Dec. 25, 2014 Rise Set
Actual Time
Civil Twilight
Nautical Twilight
Astronomical Twilight
Moon
Length of Visible Light
Length of Day
Tomorrow will be .
, % of the Moon is Illuminated

Today's Extremes

State Highs State Lows

Community

WunderPhotos

Upload Photos

1,780,349 photos uploaded!

WunderBlogs® & News

Nearby

Air Quality

  Air Quality AQ Index Pollutant
Not available.

Snow Depth

Station Depth Elevation

Earthquake Activity

City Distance Mag. Time & Date
Minimum magnitude displayed is 2.5.

Coastal Water Temperatures

Place Temperature

Nearby Weather Stations